createdAt,value
2019-04-06T00:00:54.764Z,3.00
2019-04-06T00:03:26.406Z,3.12
2019-04-06T00:05:58.207Z,3.06
2019-04-06T00:08:29.847Z,3.02
2019-04-06T00:11:01.509Z,2.98
2019-04-06T00:13:33.147Z,2.99
2019-04-06T00:16:04.839Z,3.01
2019-04-06T00:18:37.290Z,3.03
2019-04-06T00:21:09.137Z,3.02
2019-04-06T00:23:40.929Z,3.02
2019-04-06T00:26:12.558Z,3.10
2019-04-06T00:28:44.138Z,3.26
2019-04-06T00:31:33.991Z,3.20
2019-04-06T00:34:05.649Z,3.07
2019-04-06T00:36:37.311Z,2.94
2019-04-06T00:39:08.949Z,2.93
2019-04-06T00:41:42.218Z,2.98
2019-04-06T00:44:14.010Z,3.04
2019-04-06T00:46:45.461Z,3.12
2019-04-06T00:49:17.027Z,3.00
2019-04-06T00:51:49.261Z,2.94
2019-04-06T00:54:24.314Z,2.92
2019-04-06T00:57:01.608Z,2.71
2019-04-06T00:59:34.968Z,2.75
2019-04-06T01:02:07.292Z,2.69
2019-04-06T01:04:39.767Z,2.62
2019-04-06T01:07:11.535Z,2.57
2019-04-06T01:09:43.185Z,2.61
2019-04-06T01:12:15.800Z,2.54
2019-04-06T01:14:47.389Z,2.51
2019-04-06T01:17:19.055Z,2.57
2019-04-06T01:19:51.711Z,2.63
2019-04-06T01:22:23.116Z,2.60
2019-04-06T01:25:14.951Z,2.49
2019-04-06T01:27:46.722Z,2.38
2019-04-06T01:30:19.367Z,2.36
2019-04-06T01:32:51.437Z,2.30
2019-04-06T01:35:23.140Z,2.26
2019-04-06T01:37:54.998Z,2.20
2019-04-06T01:40:26.756Z,2.18
2019-04-06T01:42:58.675Z,2.20
2019-04-06T01:45:30.822Z,2.37
2019-04-06T01:48:02.347Z,2.35
2019-04-06T01:50:34.089Z,2.27
2019-04-06T01:53:05.657Z,2.26
2019-04-06T01:55:37.779Z,2.21
2019-04-06T01:58:09.380Z,2.18
2019-04-06T02:00:42.653Z,2.19
2019-04-06T02:03:14.361Z,2.26
2019-04-06T02:05:45.789Z,2.20
2019-04-06T02:08:17.438Z,2.15
2019-04-06T02:10:49.094Z,2.11
2019-04-06T02:13:20.547Z,2.08
2019-04-06T02:15:52.156Z,2.05
2019-04-06T02:18:23.783Z,1.87
2019-04-06T02:20:56.613Z,1.99
2019-04-06T02:23:28.242Z,1.92
2019-04-06T02:26:00.234Z,1.90
2019-04-06T02:28:33.573Z,1.88
2019-04-06T02:31:09.569Z,1.82
2019-04-06T02:33:48.868Z,1.80
2019-04-06T02:36:34.103Z,1.75
2019-04-06T02:39:11.280Z,1.78
2019-04-06T02:41:47.585Z,1.74
2019-04-06T02:44:19.309Z,1.74
2019-04-06T02:46:51.037Z,1.75
2019-04-06T02:49:22.641Z,1.78
2019-04-06T02:51:55.799Z,1.80
2019-04-06T02:54:27.502Z,1.84
2019-04-06T02:56:59.216Z,1.87
2019-04-06T02:59:31.266Z,1.81
2019-04-06T03:02:03.904Z,1.84
2019-04-06T03:04:35.629Z,1.80
2019-04-06T03:07:07.195Z,1.79
2019-04-06T03:09:38.850Z,1.76
2019-04-06T03:12:10.574Z,1.73
2019-04-06T03:14:44.591Z,1.66
2019-04-06T03:17:15.405Z,1.71
2019-04-06T03:19:47.236Z,1.70
2019-04-06T03:22:19.815Z,1.64
2019-04-06T03:24:51.536Z,1.58
2019-04-06T03:27:23.259Z,1.57
2019-04-06T03:29:58.431Z,1.64
2019-04-06T03:32:28.400Z,1.62
2019-04-06T03:35:00.096Z,1.68
2019-04-06T03:37:31.767Z,1.76
2019-04-06T03:40:05.478Z,1.79
2019-04-06T03:42:37.351Z,1.85
2019-04-06T03:45:09.535Z,1.93
2019-04-06T03:47:42.351Z,2.00
2019-04-06T03:50:14.196Z,2.06
2019-04-06T03:52:45.747Z,2.13
2019-04-06T03:55:17.604Z,2.16
2019-04-06T03:57:49.270Z,2.23
2019-04-06T04:00:22.610Z,2.25
2019-04-06T04:02:54.214Z,2.32
2019-04-06T04:05:25.971Z,2.37
2019-04-06T04:07:57.780Z,2.44
2019-04-06T04:10:35.676Z,2.49
2019-04-06T04:13:07.250Z,2.58
2019-04-06T04:15:39.222Z,2.58
2019-04-06T04:18:10.933Z,2.65
2019-04-06T04:20:42.324Z,2.69
2019-04-06T04:23:14.706Z,2.72
2019-04-06T04:25:46.180Z,2.78
2019-04-06T04:28:17.836Z,2.92
2019-04-06T04:30:49.603Z,3.04
2019-04-06T04:33:22.445Z,3.17
2019-04-06T04:35:53.972Z,3.33
2019-04-06T04:38:26.704Z,3.41
2019-04-06T04:40:58.360Z,3.43
2019-04-06T04:43:30.244Z,3.56
2019-04-06T04:46:01.863Z,3.59
2019-04-06T04:48:33.452Z,3.60
2019-04-06T04:51:06.530Z,3.61
2019-04-06T04:53:38.357Z,3.72
2019-04-06T04:56:09.944Z,3.87
2019-04-06T04:58:41.498Z,3.96
2019-04-06T05:01:13.317Z,4.10
2019-04-06T05:03:44.964Z,4.21
2019-04-06T05:06:16.680Z,4.32
2019-04-06T05:08:49.339Z,4.63
2019-04-06T05:11:21.125Z,4.82
2019-04-06T05:14:12.281Z,4.94
2019-04-06T05:16:44.067Z,5.11
2019-04-06T05:19:16.583Z,5.26
2019-04-06T05:24:27.161Z,5.41
2019-04-06T05:26:58.770Z,5.38
2019-04-06T05:29:33.106Z,5.62
2019-04-06T05:32:04.986Z,5.81
2019-04-06T05:34:36.879Z,5.99
2019-04-06T05:37:10.133Z,6.13
2019-04-06T05:39:41.670Z,6.26
2019-04-06T05:42:13.839Z,6.40
2019-04-06T05:44:45.695Z,6.54
2019-04-06T05:47:17.281Z,6.58
2019-04-06T05:49:49.958Z,6.67
2019-04-06T05:52:21.517Z,6.87
2019-04-06T05:54:53.158Z,7.04
2019-04-06T05:57:24.850Z,7.32
2019-04-06T05:59:56.457Z,7.51
2019-04-06T06:02:28.142Z,7.53
2019-04-06T06:05:01.216Z,7.42
2019-04-06T06:07:33.202Z,7.48
2019-04-06T06:10:06.920Z,7.79
2019-04-06T06:12:38.632Z,7.98
2019-04-06T06:15:11.442Z,8.00
2019-04-06T06:17:43.290Z,8.18
2019-04-06T06:20:16.427Z,8.41
2019-04-06T06:22:48.654Z,8.67
2019-04-06T06:25:21.206Z,8.97
2019-04-06T06:27:54.623Z,9.06
2019-04-06T06:30:26.428Z,9.32
2019-04-06T06:32:58.161Z,9.24
2019-04-06T06:35:30.065Z,9.30
2019-04-06T06:38:03.182Z,9.45
2019-04-06T06:40:35.857Z,9.57
2019-04-06T06:43:08.084Z,9.60
2019-04-06T06:45:39.998Z,9.72
2019-04-06T06:48:13.158Z,9.88
2019-04-06T06:50:47.003Z,10.10
2019-04-06T06:53:18.696Z,10.40
2019-04-06T06:55:53.985Z,10.48
2019-04-06T06:58:26.544Z,10.44
2019-04-06T07:01:03.297Z,10.57
2019-04-06T07:03:35.129Z,10.93
2019-04-06T07:06:06.922Z,10.98
2019-04-06T07:09:03.167Z,10.85
2019-04-06T07:11:34.820Z,10.95
2019-04-06T07:14:08.299Z,11.29
2019-04-06T07:16:41.381Z,11.35
2019-04-06T07:19:13.245Z,11.63
2019-04-06T07:21:46.091Z,11.82
2019-04-06T07:24:19.771Z,11.87
2019-04-06T07:26:52.678Z,12.09
2019-04-06T07:29:24.370Z,12.08
2019-04-06T07:31:56.440Z,12.08
2019-04-06T07:34:28.380Z,12.40
2019-04-06T07:37:01.738Z,12.61
2019-04-06T07:39:33.486Z,12.77
2019-04-06T07:42:05.734Z,12.68
2019-04-06T07:44:39.104Z,12.59
2019-04-06T07:47:11.938Z,12.89
2019-04-06T07:49:43.627Z,12.86
2019-04-06T07:52:15.256Z,12.94
2019-04-06T07:54:47.056Z,13.00
2019-04-06T07:57:18.855Z,13.36
2019-04-06T07:59:50.686Z,13.31
2019-04-06T08:02:22.440Z,13.37
2019-04-06T08:04:54.113Z,13.30
2019-04-06T08:07:25.773Z,13.44
2019-04-06T08:09:57.491Z,13.62
2019-04-06T08:12:28.964Z,13.89
2019-04-06T08:15:00.514Z,13.93
2019-04-06T08:17:31.969Z,13.99
2019-04-06T08:20:06.849Z,14.13
2019-04-06T08:22:38.460Z,14.58
2019-04-06T08:25:10.398Z,13.94
2019-04-06T08:27:47.485Z,14.08
2019-04-06T08:30:19.055Z,14.06
2019-04-06T08:32:50.738Z,14.32
2019-04-06T08:35:26.162Z,14.28
2019-04-06T08:37:55.431Z,14.40
2019-04-06T08:40:27.412Z,14.76
2019-04-06T08:42:59.444Z,14.57
2019-04-06T08:45:31.312Z,14.59
2019-04-06T08:48:04.977Z,14.86
2019-04-06T08:50:36.501Z,14.72
2019-04-06T08:53:10.933Z,14.75
2019-04-06T08:55:43.271Z,14.61
2019-04-06T08:58:14.856Z,14.80
2019-04-06T09:00:51.477Z,14.78
2019-04-06T09:03:23.951Z,14.64
2019-04-06T09:05:55.666Z,14.86
2019-04-06T09:08:28.859Z,15.18
2019-04-06T09:11:02.701Z,14.95
2019-04-06T09:13:36.820Z,15.18
2019-04-06T09:16:08.511Z,15.42
2019-04-06T09:18:40.516Z,15.41
2019-04-06T09:21:15.516Z,15.58
2019-04-06T09:23:47.302Z,15.67
2019-04-06T09:26:19.573Z,15.76
2019-04-06T09:29:03.116Z,15.77
2019-04-06T09:31:35.232Z,15.89
2019-04-06T09:34:09.184Z,15.32
2019-04-06T09:36:41.075Z,15.38
2019-04-06T09:39:13.005Z,15.58
2019-04-06T09:41:44.933Z,15.91
2019-04-06T09:44:21.342Z,15.70
2019-04-06T09:47:01.900Z,15.95
2019-04-06T09:49:47.758Z,15.93
2019-04-06T09:52:33.595Z,16.15
2019-04-06T09:55:22.839Z,16.48
2019-04-06T09:58:15.593Z,16.44
2019-04-06T10:00:54.992Z,16.46
2019-04-06T10:03:34.411Z,16.36
2019-04-06T10:06:13.643Z,15.86
2019-04-06T10:08:52.635Z,16.22
2019-04-06T10:11:31.748Z,16.61
2019-04-06T10:14:14.029Z,16.68
2019-04-06T10:16:56.876Z,16.83
2019-04-06T10:19:30.097Z,16.71
2019-04-06T10:22:12.037Z,18.04
2019-04-06T10:24:45.532Z,18.55
2019-04-06T10:27:18.630Z,18.20
2019-04-06T10:30:10.596Z,17.80
2019-04-06T10:32:46.686Z,18.65
2019-04-06T10:35:28.920Z,18.75
2019-04-06T10:38:04.707Z,19.72
2019-04-06T10:40:54.563Z,21.30
2019-04-06T10:43:28.242Z,21.15
2019-04-06T10:46:04.125Z,22.66
2019-04-06T10:48:55.239Z,22.21
2019-04-06T10:51:42.069Z,21.20
2019-04-06T10:54:33.323Z,20.88
2019-04-06T10:57:06.807Z,21.33
2019-04-06T10:59:40.605Z,22.10
2019-04-06T11:02:30.206Z,22.48
2019-04-06T11:05:05.991Z,22.42
2019-04-06T11:07:40.308Z,22.45
2019-04-06T11:10:13.785Z,22.28
2019-04-06T11:12:52.912Z,22.15
2019-04-06T11:15:26.366Z,21.44
2019-04-06T11:18:17.818Z,22.22
2019-04-06T11:20:50.972Z,22.16
2019-04-06T11:23:30.282Z,22.25
2019-04-06T11:26:19.985Z,22.89
2019-04-06T11:29:02.958Z,22.93
2019-04-06T11:31:53.573Z,22.66
2019-04-06T11:34:26.861Z,23.40
2019-04-06T11:37:19.018Z,22.99
2019-04-06T11:40:10.117Z,22.45
2019-04-06T11:43:00.094Z,23.05
2019-04-06T11:45:33.547Z,24.01
2019-04-06T11:48:10.013Z,23.59
2019-04-06T11:51:00.095Z,23.32
2019-04-06T11:53:36.366Z,23.14
2019-04-06T11:56:09.653Z,23.34
2019-04-06T11:58:52.871Z,23.26
2019-04-06T12:01:29.377Z,24.10
2019-04-06T12:04:02.578Z,22.94
2019-04-06T12:06:36.645Z,23.67
2019-04-06T12:09:10.525Z,24.02
2019-04-06T12:12:00.645Z,24.36
2019-04-06T12:14:37.803Z,24.56
2019-04-06T12:17:17.137Z,25.17
2019-04-06T12:20:08.872Z,24.93
2019-04-06T12:22:44.990Z,24.65
2019-04-06T12:25:23.968Z,24.44
2019-04-06T12:28:03.765Z,24.64
2019-04-06T12:30:49.213Z,24.81
2019-04-06T12:33:26.377Z,25.23
2019-04-06T12:36:00.036Z,25.58
2019-04-06T12:38:35.837Z,24.88
2019-04-06T12:41:20.912Z,24.05
2019-04-06T12:44:12.199Z,24.88
2019-04-06T12:46:52.175Z,24.02
2019-04-06T12:49:41.691Z,23.89
2019-04-06T12:52:23.859Z,23.92
2019-04-06T12:55:06.774Z,24.57
2019-04-06T12:57:48.465Z,24.90
2019-04-06T13:00:34.004Z,24.12
2019-04-06T13:03:24.245Z,23.71
2019-04-06T13:05:59.612Z,25.26
2019-04-06T13:08:49.468Z,25.00
2019-04-06T13:11:40.075Z,24.87
2019-04-06T13:17:35.640Z,23.51
2019-04-06T13:20:24.986Z,24.20
2019-04-06T13:23:14.383Z,23.85
2019-04-06T13:26:00.170Z,22.93
2019-04-06T13:28:36.508Z,22.41
2019-04-06T13:31:18.924Z,22.26
2019-04-06T13:34:05.922Z,21.07
2019-04-06T13:36:40.753Z,21.32
2019-04-06T13:39:26.715Z,20.66
2019-04-06T13:42:06.432Z,20.33
2019-04-06T13:44:49.988Z,19.25
2019-04-06T13:47:29.694Z,20.36
2019-04-06T13:50:19.617Z,20.76
2019-04-06T13:53:11.158Z,21.15
2019-04-06T13:55:44.392Z,22.22
2019-04-06T13:58:17.681Z,23.81
2019-04-06T14:00:53.326Z,22.50
2019-04-06T14:03:41.240Z,22.73
2019-04-06T14:06:24.025Z,22.60
2019-04-06T14:09:03.658Z,22.41
2019-04-06T14:11:37.166Z,20.84
2019-04-06T14:14:14.046Z,20.23
2019-04-06T14:16:52.217Z,19.63
2019-04-06T14:19:25.981Z,18.67
2019-04-06T14:21:59.339Z,17.92
2019-04-06T14:24:37.440Z,17.91
2019-04-06T14:27:27.419Z,18.01
2019-04-06T14:30:11.255Z,18.06
2019-04-06T14:32:53.376Z,18.28
2019-04-06T14:35:47.994Z,17.53
2019-04-06T14:38:37.881Z,17.50
2019-04-06T14:41:16.703Z,16.49
2019-04-06T14:44:06.994Z,16.06
2019-04-06T14:46:45.121Z,15.80
2019-04-06T14:49:29.505Z,15.54
2019-04-06T14:52:07.246Z,15.42
2019-04-06T14:54:46.173Z,15.34
2019-04-06T14:57:25.879Z,15.29
2019-04-06T15:00:09.031Z,15.20
2019-04-06T15:02:54.289Z,15.17
2019-04-06T15:05:30.172Z,15.08
2019-04-06T15:08:04.592Z,15.00
2019-04-06T15:10:40.645Z,14.95
2019-04-06T15:13:29.381Z,14.86
2019-04-06T15:16:05.153Z,14.78
2019-04-06T15:18:38.616Z,14.78
2019-04-06T15:21:11.968Z,14.62
2019-04-06T15:24:01.734Z,14.65
2019-04-06T15:26:46.901Z,14.59
2019-04-06T15:29:33.610Z,14.59
2019-04-06T15:32:19.369Z,14.48
2019-04-06T15:35:02.028Z,14.38
2019-04-06T15:37:47.873Z,14.38
2019-04-06T15:40:33.393Z,14.26
2019-04-06T15:43:23.579Z,14.15
2019-04-06T15:46:00.383Z,14.14
2019-04-06T15:48:49.936Z,14.16
2019-04-06T15:51:29.475Z,14.08
2019-04-06T15:54:05.641Z,14.01
2019-04-06T15:57:00.290Z,13.91
2019-04-06T15:59:51.327Z,13.85
2019-04-06T16:02:24.872Z,13.74
2019-04-06T16:05:02.441Z,13.69
2019-04-06T16:07:49.046Z,13.62
2019-04-06T16:10:39.184Z,13.54
2019-04-06T16:13:16.899Z,13.30
2019-04-06T16:15:53.947Z,13.25
2019-04-06T16:18:45.054Z,13.14
2019-04-06T16:21:35.266Z,12.93
2019-04-06T16:24:12.849Z,12.82
2019-04-06T16:26:56.777Z,12.69
2019-04-06T16:29:30.392Z,12.60
2019-04-06T16:32:11.484Z,12.59
2019-04-06T16:34:40.890Z,12.53
2019-04-06T16:37:19.231Z,12.42
2019-04-06T16:39:56.295Z,12.37
2019-04-06T16:42:32.822Z,12.45
2019-04-06T16:45:24.077Z,12.34
2019-04-06T16:48:09.533Z,12.26
2019-04-06T16:51:00.830Z,12.11
2019-04-06T16:53:34.231Z,12.17
2019-04-06T16:56:10.747Z,12.03
2019-04-06T16:58:43.849Z,11.97
2019-04-06T17:01:23.267Z,11.94
2019-04-06T17:04:11.814Z,12.05
2019-04-06T17:06:49.061Z,12.07
2019-04-06T17:09:25.848Z,11.95
2019-04-06T17:11:59.252Z,11.78
2019-04-06T17:14:48.548Z,11.74
2019-04-06T17:17:24.647Z,11.64
2019-04-06T17:20:00.813Z,11.62
2019-04-06T17:22:50.547Z,11.68
2019-04-06T17:25:29.653Z,11.68
2019-04-06T17:28:09.085Z,11.74
2019-04-06T17:30:45.157Z,11.68
2019-04-06T17:33:19.034Z,11.55
2019-04-06T17:36:10.810Z,11.46
2019-04-06T17:39:00.258Z,11.44
2019-04-06T17:41:51.169Z,11.47
2019-04-06T17:44:37.271Z,11.49
2019-04-06T17:47:23.102Z,11.47
2019-04-06T17:50:06.257Z,11.55
2019-04-06T17:52:43.957Z,11.58
2019-04-06T17:55:17.942Z,11.51
2019-04-06T17:57:53.754Z,11.42
2019-04-06T18:00:43.836Z,11.27
2019-04-06T18:03:35.518Z,11.22
2019-04-06T18:06:16.761Z,11.10
2019-04-06T18:09:08.475Z,11.13
2019-04-06T18:12:04.890Z,11.08
2019-04-06T18:14:36.768Z,11.04
2019-04-06T18:17:08.867Z,11.18
2019-04-06T18:19:40.492Z,11.05
2019-04-06T18:22:12.592Z,11.16
2019-04-06T18:24:45.186Z,11.09
2019-04-06T18:27:17.338Z,11.05
2019-04-06T18:29:49.326Z,11.11
2019-04-06T18:32:26.144Z,10.99
2019-04-06T18:34:57.579Z,11.02
2019-04-06T18:37:30.795Z,11.06
2019-04-06T18:40:08.113Z,11.03
2019-04-06T18:42:40.550Z,11.07
2019-04-06T18:45:14.398Z,11.01
2019-04-06T18:47:47.302Z,10.88
2019-04-06T18:50:33.341Z,10.83
2019-04-06T18:52:56.926Z,10.75
2019-04-06T18:55:28.961Z,10.67
2019-04-06T18:58:10.622Z,10.69
2019-04-06T19:00:34.953Z,10.62
2019-04-06T19:03:14.179Z,10.55
2019-04-06T19:05:40.534Z,10.48
2019-04-06T19:08:14.302Z,10.45
2019-04-06T19:10:46.011Z,10.37
2019-04-06T19:13:19.371Z,10.30
2019-04-06T19:15:50.916Z,10.14
2019-04-06T19:18:23.081Z,10.00
2019-04-06T19:20:55.226Z,9.96
2019-04-06T19:23:27.702Z,9.92
2019-04-06T19:26:00.229Z,9.93
2019-04-06T19:28:32.979Z,9.86
2019-04-06T19:31:07.555Z,9.85
2019-04-06T19:33:42.195Z,9.78
2019-04-06T19:36:13.748Z,9.75
2019-04-06T19:38:45.431Z,9.73
2019-04-06T19:41:17.880Z,9.69
2019-04-06T19:43:49.967Z,9.57
2019-04-06T19:46:22.771Z,9.56
2019-04-06T19:48:54.746Z,9.52
2019-04-06T19:51:26.554Z,9.57
2019-04-06T19:53:58.494Z,9.47
2019-04-06T19:56:30.706Z,9.46
2019-04-06T19:59:02.901Z,9.40
2019-04-06T20:01:35.491Z,9.45
2019-04-06T20:04:07.247Z,9.33
2019-04-06T20:06:39.056Z,9.37
2019-04-06T20:09:10.840Z,9.28
2019-04-06T20:11:42.644Z,9.14
2019-04-06T20:14:14.636Z,9.10
2019-04-06T20:16:47.779Z,9.05
2019-04-06T20:19:22.396Z,8.99
2019-04-06T20:21:53.980Z,9.00
2019-04-06T20:24:27.598Z,9.04
2019-04-06T20:26:59.264Z,9.03
2019-04-06T20:29:31.009Z,8.95
2019-04-06T20:32:03.723Z,8.94
2019-04-06T20:34:35.534Z,8.96
2019-04-06T20:37:09.444Z,8.95
2019-04-06T20:39:41.108Z,8.92
2019-04-06T20:42:13.293Z,8.86
2019-04-06T20:44:45.141Z,8.81
2019-04-06T20:47:17.834Z,8.78
2019-04-06T20:49:49.520Z,8.76
2019-04-06T20:52:21.707Z,8.70
2019-04-06T20:54:53.782Z,8.71
2019-04-06T20:57:27.530Z,8.68
2019-04-06T20:59:59.538Z,8.68
2019-04-06T21:02:32.433Z,8.65
2019-04-06T21:05:06.997Z,8.53
2019-04-06T21:07:38.401Z,8.52
2019-04-06T21:10:10.941Z,8.48
2019-04-06T21:12:43.336Z,8.44
2019-04-06T21:15:18.822Z,8.37
2019-04-06T21:17:48.233Z,8.45
2019-04-06T21:20:21.946Z,8.42
2019-04-06T21:22:54.095Z,8.42
2019-04-06T21:25:25.634Z,8.40
2019-04-06T21:27:57.199Z,8.37
2019-04-06T21:30:30.460Z,8.42
2019-04-06T21:33:02.163Z,8.40
2019-04-06T21:35:33.694Z,8.36
2019-04-06T21:38:05.557Z,8.42
2019-04-06T21:40:41.307Z,8.41
2019-04-06T21:43:12.685Z,8.36
2019-04-06T21:45:46.745Z,8.28
2019-04-06T21:48:19.742Z,8.30
2019-04-06T21:50:51.693Z,8.30
2019-04-06T21:53:23.435Z,8.20
2019-04-06T21:56:04.152Z,8.06
2019-04-06T21:58:30.420Z,7.97
2019-04-06T22:01:02.661Z,7.83
2019-04-06T22:03:34.712Z,7.73
2019-04-06T22:06:06.580Z,7.70
2019-04-06T22:08:38.499Z,7.74
2019-04-06T22:11:10.036Z,7.71
2019-04-06T22:13:41.890Z,7.67
2019-04-06T22:16:13.974Z,7.68
2019-04-06T22:18:45.418Z,7.65
2019-04-06T22:21:17.116Z,7.73
2019-04-06T22:23:48.740Z,7.80
2019-04-06T22:26:21.547Z,7.85
2019-04-06T22:28:53.500Z,7.87
2019-04-06T22:31:25.014Z,7.90
2019-04-06T22:33:56.844Z,7.98
2019-04-06T22:36:28.644Z,7.97
2019-04-06T22:39:00.693Z,7.94
2019-04-06T22:41:33.916Z,7.88
2019-04-06T22:44:05.908Z,7.87
2019-04-06T22:46:38.860Z,7.86
2019-04-06T22:49:13.439Z,7.82
2019-04-06T22:51:46.001Z,7.74
2019-04-06T22:54:17.750Z,7.72
2019-04-06T22:56:49.567Z,7.73
2019-04-06T22:59:21.083Z,7.66
2019-04-06T23:01:53.271Z,7.66
2019-04-06T23:04:46.623Z,7.53
2019-04-06T23:07:16.685Z,7.47
2019-04-06T23:09:48.388Z,7.40
2019-04-06T23:12:20.044Z,7.37
2019-04-06T23:14:53.708Z,7.47
2019-04-06T23:17:26.053Z,7.38
2019-04-06T23:19:57.857Z,7.45
2019-04-06T23:22:30.156Z,7.43
2019-04-06T23:25:02.031Z,7.31
2019-04-06T23:27:33.669Z,7.26
2019-04-06T23:30:08.844Z,7.19
2019-04-06T23:32:41.017Z,7.21
2019-04-06T23:35:12.945Z,7.14
2019-04-06T23:37:47.098Z,7.24
2019-04-06T23:40:17.904Z,7.19
2019-04-06T23:42:49.214Z,7.09
2019-04-06T23:45:21.086Z,7.00
2019-04-06T23:47:52.721Z,6.98
2019-04-06T23:50:25.429Z,6.11
2019-04-06T23:52:57.611Z,6.91
2019-04-06T23:55:29.428Z,6.88
2019-04-06T23:58:01.652Z,6.83
